Flight Track Log - Related Links

Times and Time Zones

All times are in EDT time to prevent confusion due to time zone crossing. See the USC105 flight status page for this flight to view local times or setup timezone preferences in your user account.

Time Position Orientation Groundspeed Altitude Reporting Facility
EDT Latitude Longitude Course Direction KTS MPH feet Rate Location/Type
Wed 11:19:10 PM 41.5186 -81.7203 286° West 125 144 1,400  Level Cleveland Center
Wed 11:20:17 PM 41.5453 -81.7706 305° West 151 174 2,100 756 Climbing Cleveland Center
Wed 11:21:17 PM 41.5697 -81.8100 310° West 149 171 3,000 835 Climbing Cleveland Center
Wed 11:22:12 PM 41.5903 -81.8519 303° West 150 173 3,700 724 Climbing Cleveland Center
Wed 11:23:13 PM 41.6167 -81.8997 306° West 157 181 4,400 744 Climbing Cleveland Center
Wed 11:24:13 PM 41.6350 -81.9472 297° West 150 173 5,200 744 Climbing Cleveland Center
Wed 11:25:14 PM 41.6553 -82.0006 297° West 155 178 5,900 397 Climbing Cleveland Center
Wed 11:26:14 PM 41.6817 -82.0594 301° West 194 223 6,000 50 Climbing Cleveland Center
Wed 11:27:15 PM 41.7036 -82.1239 295° West 189 217 6,000  Level Cleveland Center
Wed 11:28:10 PM 41.7236 -82.1800 296° West 192 221 6,000  Level Cleveland Center
Wed 11:29:10 PM 41.7519 -82.2447 300° West 191 220 6,000 -50 Level Cleveland Center
Wed 11:30:11 PM 41.7758 -82.3150 295° West 192 221 5,900  Descending Cleveland Center
Wed 11:31:09 PM 41.8003 -82.3658 303° West 191 220 6,000 54 Climbing Cleveland Center
Wed 11:32:03 PM 41.8200 -82.4278 299° West 193 222 6,000  Level Cleveland Center
Wed 11:33:04 PM 41.8461 -82.4869 301° West 194 223 6,000  Level Cleveland Center
Wed 11:34:04 PM 41.8719 -82.5603 295° West 196 226 6,000  Level Cleveland Center
Wed 11:35:05 PM 41.8981 -82.6253 298° West 196 226 6,000  Level Cleveland Center
Wed 11:36:12 PM 41.9239 -82.6958 296° West 197 227 6,000  Level Cleveland Center
Wed 11:37:12 PM 41.9475 -82.7608 296° West 197 227 6,000 -55 Level Cleveland Center
Wed 11:38:01 PM 41.9694 -82.8117 300° West 195 224 5,900  Descending Cleveland Center
Wed 11:39:02 PM 41.9975 -82.8769 300° West 193 222 6,000  Climbing Cleveland Center
Wed 11:39:56 PM 42.0278 -82.9256 310° West 188 216 5,900  Descending Cleveland Center
Wed 11:41:09 PM 42.0681 -82.9914 310° West 186 214 6,000  Climbing Cleveland Center
Wed 11:42:04 PM 42.0983 -83.0403 310° West 186 214 5,900 -52 Descending Cleveland Center
Wed 11:43:04 PM 42.1283 -83.0944 307° West 181 208 5,900 -149 Level Cleveland Center
Wed 11:44:05 PM 42.1606 -83.1461 310° West 186 214 5,600 -403 Descending Cleveland Center
Wed 11:45:18 PM 42.2028 -83.2153 310° West 193 222 5,000 -331 Descending Cleveland Center
Wed 11:46:12 PM 42.2331 -83.2614 312° West 184 212 4,900 -496 Descending Cleveland Center
Wed 11:47:19 PM 42.2669 -83.3244 306° West 192 221 4,000 -689 Descending Cleveland Center
Wed 11:48:14 PM 42.2800 -83.3869 286° West 186 214 3,500 -744 Descending Cleveland Center
Wed 11:49:20 PM 42.2889 -83.4575 280° West 195 224 2,500 -939 Descending Cleveland Center
Wed 11:50:09 PM 42.2628 -83.5011 231° Southwest 166 191 1,700 -980 Descending Cleveland Center
Wed 11:52:00 PM 42.2333 -83.5167 270° West  Level FlightAware Approximate
Wed 11:59:00 PM 42.2393 -83.5310 270° West  Level Estimated
Thu 12:00:00 AM 42.2393 -83.5310 270° West  Level Estimated

Login

Don't have an account? Register now (free) for customized features, flight alerts, and more!